createdAt,value
2022-10-08T00:02:44.940Z,90.75
2022-10-08T00:05:31.462Z,93.64
2022-10-08T00:08:17.326Z,91.73
2022-10-08T00:11:13.253Z,94.05
2022-10-08T00:13:59.894Z,89.94
2022-10-08T00:16:46.464Z,90.92
2022-10-08T00:19:32.436Z,92.03
2022-10-08T00:22:19.062Z,90.81
2022-10-08T00:25:05.288Z,88.69
2022-10-08T00:27:51.417Z,91.13
2022-10-08T00:30:39.824Z,90.56
2022-10-08T00:33:26.205Z,89.70
2022-10-08T00:36:13.433Z,91.59
2022-10-08T00:39:02.841Z,91.75
2022-10-08T00:41:52.284Z,91.43
2022-10-08T00:44:59.454Z,92.58
2022-10-08T00:47:48.414Z,93.92
2022-10-08T00:50:35.963Z,93.79
2022-10-08T00:53:21.801Z,93.68
2022-10-08T00:56:09.193Z,91.06
2022-10-08T00:58:55.610Z,90.32
2022-10-08T01:01:43.570Z,88.02
2022-10-08T01:04:29.902Z,89.17
2022-10-08T01:07:30.361Z,92.34
2022-10-08T01:10:22.625Z,95.71
2022-10-08T01:13:29.393Z,93.92
2022-10-08T01:16:34.969Z,93.05
2022-10-08T01:19:39.115Z,92.13
2022-10-08T01:22:38.863Z,94.19
2022-10-08T01:25:35.519Z,94.03
2022-10-08T01:28:39.874Z,92.52
2022-10-08T01:31:41.090Z,87.91
2022-10-08T01:34:37.668Z,92.08
2022-10-08T01:37:29.530Z,90.25
2022-10-08T01:40:20.340Z,87.73
2022-10-08T01:43:08.646Z,94.80
2022-10-08T01:45:57.362Z,90.36
2022-10-08T01:48:44.184Z,92.00
2022-10-08T01:51:40.988Z,91.46
2022-10-08T01:54:28.910Z,93.02
2022-10-08T01:57:14.966Z,90.37
2022-10-08T02:00:08.206Z,95.30
2022-10-08T02:02:57.964Z,90.84
2022-10-08T02:05:48.229Z,93.99
2022-10-08T02:08:34.322Z,91.58
2022-10-08T02:11:20.913Z,95.90
2022-10-08T02:14:07.394Z,96.41
2022-10-08T02:17:01.362Z,99.17
2022-10-08T02:19:53.398Z,96.45
2022-10-08T02:22:58.920Z,98.18
2022-10-08T02:25:48.220Z,94.92
2022-10-08T02:28:44.717Z,95.10
2022-10-08T02:32:06.160Z,96.94
2022-10-08T02:35:15.274Z,95.18
2022-10-08T02:38:06.901Z,95.91
2022-10-08T02:40:57.037Z,98.36
2022-10-08T02:43:47.168Z,95.82
2022-10-08T02:46:37.940Z,96.29
2022-10-08T02:49:27.639Z,93.25
2022-10-08T02:52:14.646Z,95.17
2022-10-08T02:55:01.598Z,95.02
2022-10-08T02:57:55.792Z,92.72
2022-10-08T03:01:04.113Z,92.46
2022-10-08T03:03:57.244Z,90.27
2022-10-08T03:06:43.665Z,91.83
2022-10-08T03:09:42.591Z,91.84
2022-10-08T03:12:30.349Z,93.76
2022-10-08T03:15:16.447Z,95.72
2022-10-08T03:18:04.322Z,100.00
2022-10-08T03:20:51.594Z,96.56
2022-10-08T03:23:37.571Z,99.98
2022-10-08T03:26:23.955Z,96.41
2022-10-08T03:29:10.082Z,100.00
2022-10-08T03:31:56.558Z,97.53
2022-10-08T03:34:42.439Z,93.64
2022-10-08T03:37:28.626Z,93.28
2022-10-08T03:40:14.809Z,93.73
2022-10-08T03:43:01.092Z,94.54
2022-10-08T03:45:53.767Z,94.78
2022-10-08T03:48:40.991Z,92.44
2022-10-08T03:51:27.223Z,90.46
2022-10-08T03:54:13.640Z,94.67
2022-10-08T03:56:59.431Z,91.38
2022-10-08T03:59:45.745Z,96.92
2022-10-08T04:02:35.102Z,100.00
2022-10-08T04:05:21.657Z,100.00
2022-10-08T04:08:07.445Z,100.00
2022-10-08T04:10:54.092Z,96.57
2022-10-08T04:13:40.936Z,96.79
2022-10-08T04:16:27.165Z,95.44
2022-10-08T04:19:13.135Z,96.30
2022-10-08T04:21:59.413Z,94.40
2022-10-08T04:24:45.771Z,93.59
2022-10-08T04:27:32.282Z,94.49
2022-10-08T04:30:18.490Z,94.66
2022-10-08T04:33:04.864Z,94.14
2022-10-08T04:35:50.764Z,92.19
2022-10-08T04:38:37.054Z,91.71
2022-10-08T04:41:25.640Z,92.55
2022-10-08T04:44:12.185Z,93.50
2022-10-08T04:46:57.991Z,94.96
2022-10-08T04:49:44.940Z,94.60
2022-10-08T04:52:31.925Z,93.16
2022-10-08T04:55:18.432Z,92.67
2022-10-08T04:58:04.627Z,94.66
2022-10-08T05:00:51.751Z,96.24
2022-10-08T05:03:43.141Z,96.46
2022-10-08T05:06:30.639Z,96.01
2022-10-08T05:09:16.693Z,93.95
2022-10-08T05:12:02.982Z,94.42
2022-10-08T05:14:49.294Z,94.30
2022-10-08T05:17:35.713Z,92.61
2022-10-08T05:20:21.591Z,93.40
2022-10-08T05:23:07.940Z,91.72
2022-10-08T05:25:53.683Z,91.51
2022-10-08T05:28:40.142Z,93.64
2022-10-08T05:31:28.107Z,92.93
2022-10-08T05:34:15.479Z,95.45
2022-10-08T05:37:02.017Z,96.61
2022-10-08T05:39:48.352Z,100.00
2022-10-08T05:42:34.491Z,100.00
2022-10-08T05:45:20.888Z,97.92
2022-10-08T05:48:06.659Z,97.88
2022-10-08T05:50:53.008Z,100.00
2022-10-08T05:53:40.301Z,99.35
2022-10-08T05:56:27.701Z,100.00
2022-10-08T05:59:22.722Z,100.00
2022-10-08T06:02:10.502Z,100.00
2022-10-08T06:04:57.259Z,100.00
2022-10-08T06:07:43.453Z,100.00
2022-10-08T06:10:32.013Z,100.00
2022-10-08T06:13:19.733Z,100.00
2022-10-08T06:16:08.520Z,100.00
2022-10-08T06:18:54.524Z,100.00
2022-10-08T06:21:40.883Z,100.00
2022-10-08T06:24:27.255Z,100.00
2022-10-08T06:27:13.541Z,100.00
2022-10-08T06:29:59.986Z,100.00
2022-10-08T06:32:46.678Z,100.00
2022-10-08T06:35:32.547Z,100.00
2022-10-08T06:38:19.204Z,100.00
2022-10-08T06:41:05.718Z,100.00
2022-10-08T06:43:52.541Z,100.00
2022-10-08T06:46:38.838Z,100.00
2022-10-08T06:49:26.804Z,100.00
2022-10-08T06:52:13.100Z,100.00
2022-10-08T06:54:59.476Z,100.00
2022-10-08T06:57:48.358Z,100.00
2022-10-08T07:00:35.171Z,100.00
2022-10-08T07:03:21.344Z,100.00
2022-10-08T07:06:10.193Z,100.00
2022-10-08T07:09:00.116Z,100.00
2022-10-08T07:11:46.366Z,100.00
2022-10-08T07:14:32.680Z,100.00
2022-10-08T07:17:19.314Z,100.00
2022-10-08T07:20:06.188Z,100.00
2022-10-08T07:22:52.550Z,100.00
2022-10-08T07:25:38.661Z,100.00
2022-10-08T07:28:26.413Z,100.00
2022-10-08T07:31:21.440Z,99.63
2022-10-08T07:34:11.321Z,100.00
2022-10-08T07:36:57.303Z,98.83
2022-10-08T07:39:43.866Z,100.00
2022-10-08T07:42:31.730Z,100.00
2022-10-08T07:45:18.286Z,96.93
2022-10-08T07:48:04.562Z,94.80
2022-10-08T07:50:51.039Z,98.35
2022-10-08T07:53:37.058Z,96.71
2022-10-08T07:56:23.612Z,93.68
2022-10-08T07:59:09.698Z,95.47
2022-10-08T08:01:56.207Z,94.55
2022-10-08T08:04:42.639Z,90.92
2022-10-08T08:07:29.502Z,94.92
2022-10-08T08:10:15.853Z,91.95
2022-10-08T08:13:01.813Z,90.24
2022-10-08T08:15:48.093Z,89.42
2022-10-08T08:18:37.152Z,88.32
2022-10-08T08:21:33.949Z,88.26
2022-10-08T08:24:19.970Z,87.22
2022-10-08T08:27:06.400Z,87.49
2022-10-08T08:29:52.756Z,84.61
2022-10-08T08:32:39.138Z,84.54
2022-10-08T08:35:25.695Z,86.91
2022-10-08T08:38:11.853Z,85.95
2022-10-08T08:41:11.836Z,85.11
2022-10-08T08:44:02.694Z,87.87
2022-10-08T08:46:59.126Z,82.42
2022-10-08T08:50:21.329Z,83.27
2022-10-08T08:53:09.502Z,83.67
2022-10-08T08:55:58.889Z,80.36
2022-10-08T08:59:05.307Z,79.47
2022-10-08T09:01:54.837Z,79.43
2022-10-08T09:04:45.492Z,77.08
2022-10-08T09:07:55.699Z,77.86
2022-10-08T09:10:47.716Z,77.99
2022-10-08T09:13:37.917Z,77.99
2022-10-08T09:16:25.417Z,75.78
2022-10-08T09:19:12.208Z,78.92
2022-10-08T09:21:58.113Z,76.00
2022-10-08T09:24:44.525Z,74.46
2022-10-08T09:28:05.961Z,72.40
2022-10-08T09:30:53.438Z,71.85
2022-10-08T09:33:41.787Z,73.43
2022-10-08T09:36:35.205Z,72.51
2022-10-08T09:39:22.144Z,69.98
2022-10-08T09:42:08.359Z,67.90
2022-10-08T09:45:00.648Z,66.84
2022-10-08T09:48:10.102Z,63.01
2022-10-08T09:51:00.437Z,64.06
2022-10-08T09:53:50.094Z,59.34
2022-10-08T09:56:35.932Z,61.84
2022-10-08T09:59:23.713Z,60.98
2022-10-08T10:02:39.167Z,59.59
2022-10-08T10:05:27.522Z,61.72
2022-10-08T10:08:43.373Z,63.84
2022-10-08T10:11:34.828Z,58.86
2022-10-08T10:14:28.227Z,62.98
2022-10-08T10:17:39.552Z,57.36
2022-10-08T10:20:37.447Z,53.79
2022-10-08T10:23:50.439Z,51.27
2022-10-08T10:26:39.445Z,51.77
2022-10-08T10:29:30.869Z,51.30
2022-10-08T10:32:21.054Z,46.53
2022-10-08T10:35:12.602Z,48.84
2022-10-08T10:38:00.411Z,47.33
2022-10-08T10:40:55.960Z,47.82
2022-10-08T10:43:53.055Z,48.87
2022-10-08T10:46:41.864Z,49.30
2022-10-08T10:49:38.304Z,47.32
2022-10-08T10:52:24.417Z,48.83
2022-10-08T10:55:13.105Z,47.88
2022-10-08T10:58:06.844Z,50.43
2022-10-08T11:01:12.100Z,51.31
2022-10-08T11:03:58.365Z,49.26
2022-10-08T11:06:53.976Z,49.17
2022-10-08T11:09:40.813Z,49.29
2022-10-08T11:12:33.663Z,48.15
2022-10-08T11:15:23.103Z,46.35
2022-10-08T11:18:21.262Z,48.93
2022-10-08T11:21:19.824Z,48.19
2022-10-08T11:24:05.491Z,53.09
2022-10-08T11:27:04.383Z,49.47
2022-10-08T11:30:19.868Z,50.09
2022-10-08T11:33:06.061Z,51.05
2022-10-08T11:36:07.600Z,53.27
2022-10-08T11:39:04.880Z,52.05
2022-10-08T11:41:59.865Z,52.20
2022-10-08T11:44:46.302Z,50.79
2022-10-08T11:47:35.127Z,49.59
2022-10-08T11:50:30.741Z,50.16
2022-10-08T11:53:18.348Z,48.40
2022-10-08T11:56:04.396Z,48.79
2022-10-08T11:58:53.364Z,53.07
2022-10-08T12:02:00.094Z,49.87
2022-10-08T12:04:46.775Z,50.37
2022-10-08T12:07:36.515Z,50.82
2022-10-08T12:10:29.758Z,51.76
2022-10-08T12:13:17.918Z,50.48
2022-10-08T12:16:05.229Z,48.57
2022-10-08T12:18:50.988Z,49.28
2022-10-08T12:21:47.057Z,53.11
2022-10-08T12:24:39.344Z,52.86
2022-10-08T12:27:31.943Z,50.66
2022-10-08T12:30:17.949Z,51.72
2022-10-08T12:33:04.288Z,53.39
2022-10-08T12:35:50.112Z,51.62
2022-10-08T12:38:38.811Z,52.32
2022-10-08T12:41:30.522Z,51.83
2022-10-08T12:44:16.780Z,48.74
2022-10-08T12:47:25.965Z,48.61
2022-10-08T12:50:12.173Z,48.73
2022-10-08T12:53:01.814Z,50.49
2022-10-08T12:55:52.343Z,50.83
2022-10-08T12:58:38.292Z,49.99
2022-10-08T13:01:24.705Z,47.06
2022-10-08T13:04:19.044Z,45.97
2022-10-08T13:07:07.411Z,50.88
2022-10-08T13:09:57.362Z,50.18
2022-10-08T13:12:43.780Z,50.18
2022-10-08T13:15:30.714Z,49.89
2022-10-08T13:18:20.977Z,50.79
2022-10-08T13:21:08.092Z,50.59
2022-10-08T13:23:54.217Z,51.77
2022-10-08T13:26:43.162Z,49.77
2022-10-08T13:29:29.489Z,49.76
2022-10-08T13:32:16.080Z,49.62
2022-10-08T13:35:04.235Z,49.15
2022-10-08T13:37:53.111Z,49.04
2022-10-08T13:40:39.302Z,50.19
2022-10-08T13:43:25.797Z,48.92
2022-10-08T13:46:12.182Z,50.09
2022-10-08T13:48:58.361Z,46.83
2022-10-08T13:51:44.666Z,47.98
2022-10-08T13:54:33.360Z,49.33
2022-10-08T13:57:19.485Z,50.70
2022-10-08T14:00:05.560Z,49.10
2022-10-08T14:02:51.955Z,50.45
2022-10-08T14:05:40.423Z,48.43
2022-10-08T14:08:27.514Z,48.01
2022-10-08T14:11:17.494Z,50.65
2022-10-08T14:14:03.819Z,48.98
2022-10-08T14:16:49.879Z,48.72
2022-10-08T14:19:35.844Z,46.94
2022-10-08T14:22:21.627Z,45.63
2022-10-08T14:25:08.585Z,45.36
2022-10-08T14:27:54.408Z,42.88
2022-10-08T14:30:40.298Z,43.32
2022-10-08T14:33:26.129Z,42.53
2022-10-08T14:36:14.820Z,44.17
2022-10-08T14:39:00.685Z,43.96
2022-10-08T14:41:47.149Z,45.54
2022-10-08T14:44:32.762Z,46.61
2022-10-08T14:47:19.098Z,46.91
2022-10-08T14:50:05.515Z,47.25
2022-10-08T14:52:52.072Z,46.50
2022-10-08T14:55:54.700Z,46.93
2022-10-08T14:58:44.675Z,48.63
2022-10-08T15:01:30.468Z,49.20
2022-10-08T15:04:16.620Z,47.59
2022-10-08T15:07:02.344Z,47.75
2022-10-08T15:09:48.823Z,45.48
2022-10-08T15:12:34.792Z,44.41
2022-10-08T15:15:21.368Z,44.48
2022-10-08T15:18:07.880Z,44.04
2022-10-08T15:20:55.690Z,44.24
2022-10-08T15:23:41.612Z,45.91
2022-10-08T15:26:27.866Z,45.06
2022-10-08T15:29:13.824Z,46.52
2022-10-08T15:32:00.164Z,49.26
2022-10-08T15:34:45.942Z,50.29
2022-10-08T15:37:32.354Z,51.25
2022-10-08T15:40:18.194Z,52.47
2022-10-08T15:43:04.686Z,52.52
2022-10-08T15:45:50.756Z,53.28
2022-10-08T15:48:37.578Z,54.70
2022-10-08T15:51:23.987Z,55.86
2022-10-08T15:54:09.972Z,57.08
2022-10-08T15:56:55.761Z,58.44
2022-10-08T15:59:41.800Z,59.58
2022-10-08T16:02:27.878Z,61.05
2022-10-08T16:05:14.194Z,62.56
2022-10-08T16:08:00.360Z,62.89
2022-10-08T16:10:46.595Z,63.82
2022-10-08T16:13:32.374Z,64.81
2022-10-08T16:16:19.186Z,64.67
2022-10-08T16:19:07.944Z,65.69
2022-10-08T16:21:55.309Z,67.37
2022-10-08T16:24:41.120Z,68.62
2022-10-08T16:27:27.371Z,68.99
2022-10-08T16:30:13.389Z,68.87
2022-10-08T16:32:59.671Z,69.69
2022-10-08T16:35:45.356Z,70.06
2022-10-08T16:38:35.566Z,70.62
2022-10-08T16:41:22.301Z,70.44
2022-10-08T16:44:12.329Z,70.83
2022-10-08T16:46:58.447Z,72.54
2022-10-08T16:49:44.908Z,73.86
2022-10-08T16:52:30.849Z,74.76
2022-10-08T16:55:17.105Z,73.48
2022-10-08T16:58:03.063Z,74.11
2022-10-08T17:00:49.050Z,74.31
2022-10-08T17:03:34.864Z,74.06
2022-10-08T17:06:21.311Z,74.96
2022-10-08T17:09:07.654Z,75.96
2022-10-08T17:11:54.128Z,76.78
2022-10-08T17:14:40.021Z,77.72
2022-10-08T17:17:26.315Z,78.18
2022-10-08T17:20:12.256Z,78.21
2022-10-08T17:22:58.730Z,78.28
2022-10-08T17:25:44.573Z,79.10
2022-10-08T17:28:31.888Z,80.68
2022-10-08T17:31:20.339Z,80.07
2022-10-08T17:34:06.684Z,80.33
2022-10-08T17:36:52.745Z,81.96
2022-10-08T17:39:39.247Z,81.24
2022-10-08T17:42:25.123Z,82.23
2022-10-08T17:45:11.752Z,82.75
2022-10-08T17:47:57.614Z,83.30
2022-10-08T17:50:44.112Z,81.80
2022-10-08T17:53:30.230Z,82.89
2022-10-08T17:56:16.981Z,82.86
2022-10-08T17:59:03.049Z,82.52
2022-10-08T18:01:49.414Z,83.11
2022-10-08T18:04:35.535Z,83.55
2022-10-08T18:07:21.390Z,84.09
2022-10-08T18:10:08.128Z,84.73
2022-10-08T18:12:53.855Z,84.89
2022-10-08T18:15:40.381Z,85.13
2022-10-08T18:18:26.496Z,86.86
2022-10-08T18:21:12.955Z,86.16
2022-10-08T18:23:59.134Z,85.06
2022-10-08T18:26:45.565Z,87.33
2022-10-08T18:29:31.409Z,86.55
2022-10-08T18:32:17.336Z,89.42
2022-10-08T18:35:03.321Z,85.70
2022-10-08T18:37:50.073Z,85.94
2022-10-08T18:40:36.285Z,86.08
2022-10-08T18:43:22.500Z,86.47
2022-10-08T18:46:08.409Z,86.13
2022-10-08T18:48:54.632Z,86.54
2022-10-08T18:51:40.101Z,86.13
2022-10-08T18:54:26.043Z,85.44
2022-10-08T18:57:11.680Z,85.74
2022-10-08T18:59:58.064Z,86.28
2022-10-08T19:02:44.267Z,87.63
2022-10-08T19:05:30.300Z,89.15
2022-10-08T19:08:16.139Z,92.16
2022-10-08T19:11:12.792Z,100.00
2022-10-08T19:13:58.406Z,100.00
2022-10-08T19:16:45.087Z,100.00
2022-10-08T19:19:31.896Z,100.00
2022-10-08T19:22:18.086Z,96.05
2022-10-08T19:25:03.954Z,96.04
2022-10-08T19:27:50.295Z,92.27
2022-10-08T19:30:36.187Z,92.19
2022-10-08T19:33:22.542Z,92.49
2022-10-08T19:36:08.498Z,92.35
2022-10-08T19:38:55.653Z,91.12
2022-10-08T19:41:41.634Z,91.18
2022-10-08T19:44:27.734Z,91.18
2022-10-08T19:47:13.614Z,92.21
2022-10-08T19:49:59.908Z,92.28
2022-10-08T19:52:49.739Z,92.81
2022-10-08T19:55:38.292Z,94.49
2022-10-08T19:58:24.234Z,95.94
2022-10-08T20:01:11.764Z,100.00
2022-10-08T20:03:58.297Z,98.43
2022-10-08T20:06:44.152Z,99.06
2022-10-08T20:09:30.978Z,100.00
2022-10-08T20:12:16.885Z,98.45
2022-10-08T20:15:03.328Z,98.07
2022-10-08T20:17:50.566Z,96.89
2022-10-08T20:20:36.837Z,95.67
2022-10-08T20:23:22.619Z,93.79
2022-10-08T20:26:09.449Z,93.29
2022-10-08T20:28:57.377Z,93.24
2022-10-08T20:31:44.724Z,93.77
2022-10-08T20:34:31.695Z,94.19
2022-10-08T20:37:18.106Z,94.37
2022-10-08T20:40:03.927Z,97.06
2022-10-08T20:42:50.758Z,100.00
2022-10-08T20:45:37.004Z,99.32
2022-10-08T20:48:23.322Z,98.57
2022-10-08T20:51:10.434Z,98.64
2022-10-08T20:53:57.750Z,100.00
2022-10-08T20:56:43.587Z,100.00
2022-10-08T20:59:29.857Z,100.00
2022-10-08T21:02:19.616Z,100.00
2022-10-08T21:05:06.186Z,99.54
2022-10-08T21:07:52.017Z,97.03
2022-10-08T21:10:38.569Z,97.11
2022-10-08T21:13:24.531Z,95.80
2022-10-08T21:16:12.753Z,96.09
2022-10-08T21:19:02.185Z,100.00
2022-10-08T21:21:48.688Z,100.00
2022-10-08T21:24:35.865Z,100.00
2022-10-08T21:27:21.867Z,100.00
2022-10-08T21:30:08.079Z,100.00
2022-10-08T21:32:55.161Z,100.00
2022-10-08T21:35:41.305Z,100.00
2022-10-08T21:38:30.475Z,100.00
2022-10-08T21:41:17.230Z,100.00
2022-10-08T21:44:04.114Z,100.00
2022-10-08T21:46:49.959Z,100.00
2022-10-08T21:49:36.536Z,100.00
2022-10-08T21:52:21.968Z,100.00
2022-10-08T21:55:08.620Z,100.00
2022-10-08T21:57:54.234Z,100.00
2022-10-08T22:00:40.204Z,100.00
2022-10-08T22:03:26.510Z,100.00
2022-10-08T22:06:12.215Z,100.00
2022-10-08T22:08:58.393Z,100.00
2022-10-08T22:11:44.704Z,100.00
2022-10-08T22:14:30.781Z,100.00
2022-10-08T22:17:16.744Z,100.00
2022-10-08T22:20:03.179Z,100.00
2022-10-08T22:22:49.432Z,99.75
2022-10-08T22:25:36.228Z,99.94
2022-10-08T22:28:22.033Z,100.00
2022-10-08T22:31:08.821Z,100.00
2022-10-08T22:33:54.789Z,99.36
2022-10-08T22:36:41.835Z,98.95
2022-10-08T22:39:27.523Z,99.13
2022-10-08T22:42:14.049Z,99.54
2022-10-08T22:44:59.877Z,100.00
2022-10-08T22:47:46.334Z,100.00
2022-10-08T22:50:33.627Z,100.00
2022-10-08T22:53:19.982Z,99.70
2022-10-08T22:56:13.156Z,99.89
2022-10-08T22:58:59.813Z,100.00
2022-10-08T23:01:45.891Z,100.00
2022-10-08T23:04:32.310Z,100.00
2022-10-08T23:07:17.873Z,100.00
2022-10-08T23:10:04.458Z,100.00
2022-10-08T23:12:50.390Z,100.00
2022-10-08T23:15:36.967Z,100.00
2022-10-08T23:18:22.842Z,100.00
2022-10-08T23:21:10.260Z,100.00
2022-10-08T23:23:56.661Z,100.00
2022-10-08T23:26:42.839Z,99.39
2022-10-08T23:29:28.687Z,97.74
2022-10-08T23:32:14.545Z,97.71
2022-10-08T23:35:00.306Z,99.60
2022-10-08T23:37:48.559Z,100.00
2022-10-08T23:40:34.544Z,99.44
2022-10-08T23:43:20.836Z,100.00
2022-10-08T23:46:07.207Z,100.00
2022-10-08T23:48:53.790Z,100.00
2022-10-08T23:51:39.827Z,100.00
2022-10-08T23:54:25.701Z,100.00
2022-10-08T23:57:11.408Z,100.00
2022-10-08T23:59:57.230Z,100.00
